TimeEST,TemperatureF,Dew PointF,Humidity,Sea Level PressureIn,VisibilityMPH,Wind Direction,Wind SpeedMPH,Gust SpeedMPH,PrecipitationIn,Events,Conditions,WindDirDegrees,DateUTC
12:54 AM,27.0,17.1,66,30.16,-9999.0,NW,9.2,-,N/A,,Unknown,310,2012-11-06 05:54:00
1:54 AM,27.0,17.1,66,30.16,-9999.0,NW,9.2,-,N/A,,Unknown,320,2012-11-06 06:54:00
2:54 AM,26.1,17.1,69,30.17,-9999.0,NW,9.2,-,N/A,,Unknown,310,2012-11-06 07:54:00
3:54 AM,26.1,17.1,69,30.17,-9999.0,NW,10.4,-,N/A,,Unknown,310,2012-11-06 08:54:00
4:54 AM,26.1,16.0,66,30.18,-9999.0,NW,11.5,-,N/A,,Unknown,320,2012-11-06 09:54:00
5:54 AM,26.1,15.1,63,30.19,-9999.0,NW,10.4,-,N/A,,Unknown,320,2012-11-06 10:54:00
6:54 AM,26.1,16.0,66,30.21,-9999.0,NW,9.2,-,N/A,,Unknown,320,2012-11-06 11:54:00
7:54 AM,28.9,16.0,58,30.24,-9999.0,NNW,8.1,-,N/A,,Unknown,330,2012-11-06 12:54:00
8:54 AM,32.0,17.1,54,30.25,-9999.0,NW,4.6,-,N/A,,Unknown,320,2012-11-06 13:54:00
9:54 AM,36.0,14.0,41,30.25,-9999.0,NNW,9.2,-,N/A,,Unknown,330,2012-11-06 14:54:00
10:54 AM,37.0,14.0,39,30.24,-9999.0,NW,6.9,-,N/A,,Unknown,320,2012-11-06 15:54:00
11:54 AM,37.9,14.0,38,30.23,-9999.0,Variable,3.5,-,N/A,,Unknown,0,2012-11-06 16:54:00
12:54 PM,37.9,12.9,36,30.22,-9999.0,Calm,Calm,-,N/A,,Unknown,0,2012-11-06 17:54:00
1:54 PM,39.0,12.0,33,30.21,-9999.0,Calm,Calm,-,N/A,,Unknown,0,2012-11-06 18:54:00
2:54 PM,39.0,12.0,33,30.21,-9999.0,Calm,Calm,-,N/A,,Unknown,0,2012-11-06 19:54:00
3:54 PM,37.9,10.9,33,30.20,-9999.0,NNE,3.5,-,N/A,,Unknown,20,2012-11-06 20:54:00
4:54 PM,36.0,12.9,39,30.21,-9999.0,East,3.5,-,N/A,,Unknown,80,2012-11-06 21:54:00
5:54 PM,35.1,15.1,44,30.22,-9999.0,East,8.1,-,N/A,,Unknown,80,2012-11-06 22:54:00
6:54 PM,34.0,19.0,54,30.23,-9999.0,East,9.2,-,N/A,,Unknown,80,2012-11-06 23:54:00
7:54 PM,33.1,21.0,61,30.23,-9999.0,East,8.1,-,N/A,,Unknown,90,2012-11-07 00:54:00
8:54 PM,34.0,21.9,61,30.22,-9999.0,ENE,10.4,-,N/A,,Unknown,60,2012-11-07 01:54:00
9:54 PM,35.1,21.9,59,30.21,-9999.0,ENE,10.4,-,N/A,,Unknown,70,2012-11-07 02:54:00
10:54 PM,35.1,24.1,64,30.18,-9999.0,ENE,11.5,-,N/A,,Unknown,70,2012-11-07 03:54:00
11:54 PM,36.0,25.0,64,30.18,-9999.0,East,13.8,-,N/A,,Unknown,80,2012-11-07 04:54:00